KMAF/MAF METAR and TAF weather

Enter ICAO airport designator
Station Type Date Time Source
KMAF METAR 2021/05/14 12:53 UTC NOAA

KMAF 141253Z 15012KT 10SM BKN013 15/13 A3015 RMK AO2 SLP176 T01500133


Station Type Date Time Source
KMAF Decoded METAR 2021/05/14 12:53 UTC NOAA

MIDLAND INTERNATIONAL AIRPORT , TX, United States (KMAF) 31-56N 102-12W 872M
May 14, 2021 - 08:53 AM EDT / 2021.05.14 1253 UTC
Wind: from the SSE (150 degrees) at 14 MPH (12 KT):0
Visibility: 10 mile(s):0
Sky conditions: mostly cloudy
Temperature: 59.0 F (15.0 C)
Dew Point: 55.9 F (13.3 C)
Relative Humidity: 89%
Pressure (altimeter): 30.15 in. Hg (1020 hPa)
ob: KMAF 141253Z 15012KT 10SM BKN013 15/13 A3015 RMK AO2 SLP176 T01500133
cycle: 13

Station Type Date Time Source
KMAF TAF 2021/05/14 13:12 UTC NOAA

TAF
AMD KMAF 141310Z 1413/1512 16011KT P6SM BKN015
FM141700 16016G23KT P6SM SCT100
FM150600 15013KT P6SM SCT050

Example: see airport list